createdAt,value
2022-12-19T00:01:38.088Z,2.50
2022-12-19T00:04:08.238Z,1.50
2022-12-19T00:06:36.937Z,1.42
2022-12-19T00:09:04.214Z,14.32
2022-12-19T00:11:31.458Z,1.38
2022-12-19T00:13:59.378Z,1.17
2022-12-19T00:16:29.867Z,1.45
2022-12-19T00:18:59.200Z,8.43
2022-12-19T00:21:28.868Z,2.90
2022-12-19T00:23:56.044Z,1.08
2022-12-19T00:26:31.455Z,9.18
2022-12-19T00:29:00.650Z,6.55
2022-12-19T00:31:30.932Z,6.38
2022-12-19T00:33:57.919Z,6.68
2022-12-19T00:36:27.731Z,7.68
2022-12-19T00:38:57.562Z,6.82
2022-12-19T00:41:25.698Z,2.35
2022-12-19T00:44:06.047Z,2.08
2022-12-19T00:46:35.481Z,2.17
2022-12-19T00:49:02.784Z,0.93
2022-12-19T00:51:31.932Z,1.95
2022-12-19T00:53:59.225Z,0.82
2022-12-19T00:56:29.048Z,4.28
2022-12-19T00:58:56.331Z,2.58
2022-12-19T01:01:43.553Z,9.10
2022-12-19T01:04:30.795Z,2.50
2022-12-19T01:07:01.944Z,2.28
2022-12-19T01:09:30.365Z,1.42
2022-12-19T01:12:15.961Z,1.35
2022-12-19T01:14:42.689Z,1.73
2022-12-19T01:17:09.373Z,3.33
2022-12-19T01:19:41.944Z,1.23
2022-12-19T01:22:11.308Z,1.50
2022-12-19T01:24:38.203Z,1.60
2022-12-19T01:27:05.539Z,1.42
2022-12-19T01:29:33.495Z,2.17
2022-12-19T01:32:02.437Z,1.45
2022-12-19T01:34:29.190Z,5.03
2022-12-19T01:36:56.132Z,1.65
2022-12-19T01:39:23.048Z,2.33
2022-12-19T01:41:51.880Z,0.77
2022-12-19T01:44:18.665Z,1.10
2022-12-19T01:46:50.327Z,1.27
2022-12-19T01:49:22.970Z,2.23
2022-12-19T01:51:54.131Z,2.57
2022-12-19T01:54:27.067Z,1.70
2022-12-19T01:56:57.789Z,2.97
2022-12-19T01:59:28.417Z,1.37
2022-12-19T02:02:01.890Z,0.90
2022-12-19T02:04:32.563Z,0.60
2022-12-19T02:07:03.551Z,2.13
2022-12-19T02:09:42.496Z,13.50
2022-12-19T02:12:09.197Z,1.07
2022-12-19T02:14:35.983Z,2.60
2022-12-19T02:17:19.807Z,1.03
2022-12-19T02:20:10.508Z,5.47
2022-12-19T02:23:25.218Z,1.57
2022-12-19T02:26:22.960Z,4.13
2022-12-19T02:28:55.686Z,1.83
2022-12-19T02:31:32.656Z,2.57
2022-12-19T02:34:31.491Z,2.00
2022-12-19T02:37:05.678Z,2.90
2022-12-19T02:39:36.664Z,1.80
2022-12-19T02:42:07.701Z,8.90
2022-12-19T02:44:48.821Z,3.37
2022-12-19T02:47:16.707Z,1.13
2022-12-19T02:49:43.442Z,0.73
2022-12-19T02:52:12.423Z,2.20
2022-12-19T02:54:42.291Z,2.30
2022-12-19T02:57:29.311Z,2.93
2022-12-19T02:59:59.279Z,1.33
2022-12-19T03:02:36.267Z,2.20
2022-12-19T03:05:20.886Z,1.20
2022-12-19T03:08:02.051Z,3.13
2022-12-19T03:10:30.414Z,2.80
2022-12-19T03:13:11.713Z,2.00
2022-12-19T03:15:40.828Z,3.60
2022-12-19T03:18:08.510Z,2.53
2022-12-19T03:20:53.028Z,2.37
2022-12-19T03:23:20.694Z,4.33
2022-12-19T03:25:56.453Z,1.73
2022-12-19T03:28:48.246Z,2.83
2022-12-19T03:31:19.726Z,2.17
2022-12-19T03:33:51.013Z,2.80
2022-12-19T03:36:24.603Z,2.70
2022-12-19T03:38:54.076Z,3.23
2022-12-19T03:41:43.088Z,6.78
2022-12-19T03:44:14.085Z,2.20
2022-12-19T03:46:47.418Z,2.60
2022-12-19T03:49:14.583Z,2.03
2022-12-19T03:51:59.239Z,2.27
2022-12-19T03:54:31.228Z,2.73
2022-12-19T03:57:05.610Z,1.47
2022-12-19T04:00:03.741Z,2.07
2022-12-19T04:02:34.345Z,3.03
2022-12-19T04:05:09.475Z,2.57
2022-12-19T04:07:40.355Z,2.07
2022-12-19T04:10:11.338Z,3.27
2022-12-19T04:12:43.255Z,1.77
2022-12-19T04:15:13.338Z,3.90
2022-12-19T04:17:52.677Z,3.60
2022-12-19T04:20:22.773Z,2.45
2022-12-19T04:25:45.411Z,2.17
2022-12-19T04:28:34.183Z,1.97
2022-12-19T04:31:02.225Z,1.30
2022-12-19T04:33:29.021Z,2.77
2022-12-19T04:35:55.906Z,2.87
2022-12-19T04:38:22.739Z,2.73
2022-12-19T04:40:49.625Z,4.30
2022-12-19T04:43:16.507Z,1.90
2022-12-19T04:45:43.300Z,1.30
2022-12-19T04:48:10.776Z,1.20
2022-12-19T04:50:37.787Z,1.60
2022-12-19T04:53:06.062Z,2.67
2022-12-19T04:55:32.864Z,1.70
2022-12-19T04:58:02.919Z,2.40
2022-12-19T05:00:29.673Z,1.58
2022-12-19T05:02:56.528Z,4.85
2022-12-19T05:05:23.510Z,1.33
2022-12-19T05:07:51.376Z,2.00
2022-12-19T05:10:18.332Z,3.20
2022-12-19T05:12:45.150Z,2.20
2022-12-19T05:15:12.014Z,1.88
2022-12-19T05:17:38.710Z,1.00
2022-12-19T05:20:06.347Z,2.40
2022-12-19T05:22:33.061Z,1.80
2022-12-19T05:24:59.748Z,1.75
2022-12-19T05:27:26.585Z,1.75
2022-12-19T05:29:53.332Z,2.58
2022-12-19T05:32:20.143Z,3.17
2022-12-19T05:34:46.920Z,5.97
2022-12-19T05:37:13.647Z,1.40
2022-12-19T05:39:40.349Z,2.80
2022-12-19T05:42:12.053Z,9.15
2022-12-19T05:44:39.180Z,1.30
2022-12-19T05:47:05.965Z,1.08
2022-12-19T05:49:32.891Z,2.92
2022-12-19T05:51:59.612Z,4.22
2022-12-19T05:54:26.569Z,1.63
2022-12-19T05:56:53.348Z,2.45
2022-12-19T05:59:20.189Z,2.08
2022-12-19T06:01:46.967Z,1.42
2022-12-19T06:04:13.763Z,1.10
2022-12-19T06:06:40.684Z,2.50
2022-12-19T06:09:07.428Z,1.15
2022-12-19T06:11:34.160Z,7.25
2022-12-19T06:14:01.002Z,1.15
2022-12-19T06:16:27.754Z,2.75
2022-12-19T06:18:54.585Z,1.77
2022-12-19T06:21:22.967Z,1.65
2022-12-19T06:23:49.709Z,1.58
2022-12-19T06:26:20.318Z,1.00
2022-12-19T06:28:49.115Z,1.48
2022-12-19T06:31:16.788Z,2.80
2022-12-19T06:33:43.791Z,0.80
2022-12-19T06:36:16.983Z,2.00
2022-12-19T06:38:43.816Z,1.95
2022-12-19T06:41:30.284Z,0.77
2022-12-19T06:44:05.884Z,2.20
2022-12-19T06:46:33.348Z,0.98
2022-12-19T06:49:00.386Z,1.20
2022-12-19T06:51:27.121Z,1.63
2022-12-19T06:53:54.218Z,1.05
2022-12-19T06:56:21.411Z,0.98
2022-12-19T06:58:48.952Z,2.83
2022-12-19T07:01:53.894Z,5.13
2022-12-19T07:04:27.128Z,1.65
2022-12-19T07:06:54.646Z,1.95
2022-12-19T07:09:22.271Z,2.30
2022-12-19T07:11:48.970Z,5.88
2022-12-19T07:14:15.776Z,1.67
2022-12-19T07:16:42.948Z,1.92
2022-12-19T07:19:10.155Z,1.90
2022-12-19T07:21:38.722Z,1.30
2022-12-19T07:24:07.535Z,7.85
2022-12-19T07:26:35.566Z,1.88
2022-12-19T07:29:03.132Z,2.70
2022-12-19T07:31:29.992Z,2.95
2022-12-19T07:33:59.168Z,3.13
2022-12-19T07:36:26.496Z,3.33
2022-12-19T07:38:53.243Z,2.22
2022-12-19T07:41:20.005Z,2.05
2022-12-19T07:43:47.504Z,4.32
2022-12-19T07:46:14.376Z,1.40
2022-12-19T07:48:41.130Z,5.85
2022-12-19T07:51:08.064Z,2.17
2022-12-19T07:53:34.821Z,1.75
2022-12-19T07:56:01.566Z,7.78
2022-12-19T07:58:28.323Z,0.90
2022-12-19T08:01:00.973Z,1.48
2022-12-19T08:03:28.788Z,31.23
2022-12-19T08:06:03.368Z,25.77
2022-12-19T08:08:30.882Z,30.50
2022-12-19T08:11:10.373Z,19.75
2022-12-19T08:13:42.027Z,19.30
2022-12-19T08:16:13.025Z,18.60
2022-12-19T08:18:40.679Z,19.27
2022-12-19T08:21:08.737Z,18.15
2022-12-19T08:23:35.785Z,17.73
2022-12-19T08:26:08.269Z,13.43
2022-12-19T08:28:37.177Z,19.08
2022-12-19T08:31:12.627Z,22.52
2022-12-19T08:33:39.794Z,17.83
2022-12-19T08:36:13.958Z,17.23
2022-12-19T08:38:41.292Z,17.15
2022-12-19T08:41:08.897Z,17.10
2022-12-19T08:43:36.026Z,17.17
2022-12-19T08:46:02.893Z,17.88
2022-12-19T08:48:30.939Z,18.25
2022-12-19T08:51:02.791Z,18.20
2022-12-19T08:53:31.693Z,18.15
2022-12-19T08:56:04.779Z,19.92
2022-12-19T08:58:31.541Z,18.38
2022-12-19T09:01:05.509Z,17.90
2022-12-19T09:03:46.214Z,18.00
2022-12-19T09:06:20.194Z,18.05
2022-12-19T09:08:47.155Z,19.35
2022-12-19T09:11:16.727Z,18.35
2022-12-19T09:13:44.155Z,18.00
2022-12-19T09:16:20.453Z,17.90
2022-12-19T09:18:49.633Z,18.30
2022-12-19T09:21:18.036Z,18.33
2022-12-19T09:23:49.149Z,16.88
2022-12-19T09:26:17.106Z,5.43
2022-12-19T09:28:46.240Z,2.33
2022-12-19T09:31:16.562Z,3.77
2022-12-19T09:33:44.229Z,2.85
2022-12-19T09:36:15.963Z,17.70
2022-12-19T09:38:43.389Z,2.78
2022-12-19T09:41:29.430Z,2.63
2022-12-19T09:44:32.074Z,2.63
2022-12-19T09:47:13.579Z,4.03
2022-12-19T09:49:43.588Z,4.10
2022-12-19T09:54:51.623Z,2.00
2022-12-19T09:57:21.076Z,4.18
2022-12-19T09:59:59.549Z,2.67
2022-12-19T10:02:26.502Z,4.43
2022-12-19T10:05:35.484Z,1.98
2022-12-19T10:08:07.737Z,3.45
2022-12-19T10:12:37.401Z,2.65
2022-12-19T10:14:24.643Z,2.15
2022-12-19T10:17:23.815Z,4.95
2022-12-19T10:19:55.976Z,2.58
2022-12-19T10:22:44.734Z,13.25
2022-12-19T10:25:36.681Z,1.83
2022-12-19T10:28:42.208Z,4.00
2022-12-19T10:31:34.340Z,5.63
2022-12-19T10:34:16.493Z,2.03
2022-12-19T10:37:23.224Z,2.28
2022-12-19T10:39:59.403Z,3.25
2022-12-19T10:42:46.613Z,2.97
2022-12-19T10:45:16.160Z,3.75
2022-12-19T10:47:42.934Z,3.35
2022-12-19T10:50:14.383Z,2.75
2022-12-19T10:53:03.833Z,3.20
2022-12-19T10:55:50.721Z,7.28
2022-12-19T10:58:25.870Z,2.85
2022-12-19T11:01:16.590Z,4.00
2022-12-19T11:03:48.285Z,5.38
2022-12-19T11:06:43.704Z,4.00
2022-12-19T11:09:19.468Z,4.00
2022-12-19T11:16:09.521Z,3.47
2022-12-19T11:19:27.532Z,4.22
2022-12-19T11:24:19.100Z,1.90
2022-12-19T11:29:34.915Z,2.88
2022-12-19T11:29:55.166Z,2.30
2022-12-19T11:30:35.458Z,3.38
2022-12-19T11:32:41.865Z,2.25
2022-12-19T11:35:25.248Z,5.25
2022-12-19T11:38:06.050Z,2.90
2022-12-19T11:40:55.638Z,3.85
2022-12-19T11:43:47.731Z,3.33
2022-12-19T11:46:53.232Z,3.17
2022-12-19T11:49:43.297Z,3.13
2022-12-19T11:55:17.951Z,3.00
2022-12-19T11:57:46.099Z,1.75
2022-12-19T12:00:24.602Z,6.70
2022-12-19T12:02:57.935Z,6.88
2022-12-19T12:05:45.047Z,6.32
2022-12-19T12:11:13.838Z,3.40
2022-12-19T12:18:28.157Z,1.83
2022-12-19T12:22:00.704Z,3.47
2022-12-19T12:26:48.945Z,5.15
2022-12-19T12:31:04.716Z,5.75
2022-12-19T12:31:22.909Z,2.85
2022-12-19T12:32:00.975Z,2.72
2022-12-19T12:32:03.741Z,3.38
2022-12-19T12:35:51.086Z,2.92
2022-12-19T12:39:34.371Z,7.85
2022-12-19T12:42:37.960Z,4.82
2022-12-19T12:45:23.498Z,3.35
2022-12-19T12:47:52.897Z,3.72
2022-12-19T12:50:22.971Z,2.90
2022-12-19T12:55:25.346Z,2.53
2022-12-19T12:57:52.395Z,2.65
2022-12-19T13:00:32.217Z,1.90
2022-12-19T13:03:11.603Z,2.78
2022-12-19T13:05:47.732Z,6.13
2022-12-19T13:08:36.500Z,5.13
2022-12-19T13:12:13.517Z,4.88
2022-12-19T13:14:40.796Z,3.55
2022-12-19T13:17:12.281Z,5.68
